首页
METAR-TAF:

METAR-TAF

机场 :

吉达, 沙特阿拉伯

阿卜杜勒-阿齐兹国王国际机场

纬度: 21-42N, 经度: 039-11E, 海拔: 15米

当前天气观测

该预报发布于21分钟前的22:00 UTC
风速4节,风向北转东北
温度 27°C
湿度 66%
气压 1006 hPa
能见度10公里或以上
1500米以下无云,无积雨云

METAR: OEJN 252200Z 02004KT CAVOK 27/20 Q1006 NOSIG

时间: 01:21 (22:21 UTC)

预报

该预报发布于5小时和21分钟前的17:00 UTC
预报有效从25日的 18点(UTC)到 26日的 24点(UTC)
风速6节,风向
能见度10公里或以上
少量云层高于4000英尺
短暂存在
从 25日的 18点(UTC)到 26日的 06点(UTC)
能見度: 6000
散云层高于4000英尺
几率 30% :
短暂存在
从 26日的 00点(UTC)到 26日的 06点(UTC)
少量云层高于3500英尺, 积雨云.
雷暴

TAF: OEJN 251700Z 2518/2624 36006KT 9999 FEW040 TEMPO 2518/2606 6000 SCT040 PROB30 TEMPO 2600/2606 TS FEW035CB

超过4000个机场的气象观测和天气预报(METAR&TAF报告)。

可查询的气象台以黄色和红色小点在地图上表示。

将鼠标移到小点上方,可查看气象台名称。

然后点击查看天气观测和预报。

如需切换地图:点击带黑十字的绿色按钮放大地图;点击带横线的绿色按钮缩小地图;或者点击绿色箭头查看邻近地区的地图。


METAR-TAF: